Time;durP1;ratioP1;P1;durP2;ratioP2;P2;SDS_P1;SDS_P2;PMS_P1;PMS_P2;Temp;Humidity;BMP_temperature;BMP_pressure;BME280_temperature;BME280_humidity;BME280_pressure;Samples;Min_cycle;Max_cycle;Signal;HPM_P1;HPM_P2
2023/01/23 00:00:55;;;;;;;15.43;10.27;;;;;;;2.14;100.00;101364.66;1445242;90;21679;-80
2023/01/23 00:03:22;;;;;;;17.00;11.13;;;;;;;2.14;100.00;101364.66;1442092;90;23379;-79
2023/01/23 00:05:59;;;;;;;15.70;9.83;;;;;;;2.13;100.00;101360.36;1444856;90;22056;-75
2023/01/23 00:08:26;;;;;;;16.40;10.83;;;;;;;2.13;100.00;101360.36;1447667;90;22048;-79
2023/01/23 00:10:53;;;;;;;16.73;9.80;;;;;;;2.10;100.00;101357.89;1442735;90;22002;-79
2023/01/23 00:13:19;;;;;;;15.77;9.83;;;;;;;2.09;100.00;101366.63;1445549;90;22276;-79
2023/01/23 00:15:47;;;;;;;15.07;10.30;;;;;;;2.05;100.00;101369.00;1440100;90;21767;-80
2023/01/23 00:18:14;;;;;;;17.87;11.93;;;;;;;2.05;100.00;101363.78;1440638;90;21798;-79
2023/01/23 00:20:41;;;;;;;17.70;10.40;;;;;;;2.05;100.00;101363.78;1444507;90;21759;-78
2023/01/23 00:23:09;;;;;;;16.10;10.53;;;;;;;2.00;100.00;101359.22;1447731;90;21628;-79
2023/01/23 00:25:36;;;;;;;15.27;10.10;;;;;;;2.05;100.00;101361.16;1446128;90;21875;-80
2023/01/23 00:28:03;;;;;;;18.37;10.53;;;;;;;2.09;100.00;101367.93;1438783;90;21784;-78
2023/01/23 00:30:29;;;;;;;22.17;10.37;;;;;;;2.09;100.00;101367.93;1442698;90;21825;-80
2023/01/23 00:32:55;;;;;;;17.47;11.27;;;;;;;2.09;100.00;101369.23;1447815;90;22853;-80
2023/01/23 00:35:22;;;;;;;17.37;10.23;;;;;;;2.08;100.00;101372.77;1449155;90;21703;-78
2023/01/23 00:37:48;;;;;;;17.43;10.67;;;;;;;2.07;100.00;101375.44;1445775;90;21852;-79
2023/01/23 00:40:14;;;;;;;17.47;10.53;;;;;;;1.99;100.00;101374.50;1443727;90;22694;-80
2023/01/23 00:42:40;;;;;;;15.10;10.27;;;;;;;1.99;100.00;101374.50;1442489;90;21946;-80
2023/01/23 00:45:07;;;;;;;15.60;9.67;;;;;;;1.99;100.00;101367.98;1447700;90;22781;-80
2023/01/23 00:47:33;;;;;;;11.60;8.30;;;;;;;2.00;100.00;101367.05;1443365;90;21656;-79
2023/01/23 00:49:59;;;;;;;14.80;9.50;;;;;;;1.97;100.00;101364.58;1444876;90;21757;-80
2023/01/23 00:52:26;;;;;;;15.93;10.17;;;;;;;1.97;100.00;101375.02;1444747;90;23075;-77
2023/01/23 00:54:53;;;;;;;19.37;10.70;;;;;;;1.95;100.00;101375.08;1441460;90;21739;-78
2023/01/23 00:57:19;;;;;;;21.23;11.77;;;;;;;1.91;100.00;101380.52;1448329;90;21630;-79
2023/01/23 00:59:45;;;;;;;18.70;11.03;;;;;;;1.91;100.00;101380.52;1432189;90;22717;-79
2023/01/23 01:02:12;;;;;;;18.27;9.83;;;;;;;1.87;100.00;101373.30;1443195;90;22240;-79
2023/01/23 01:04:38;;;;;;;17.73;10.50;;;;;;;1.91;100.00;101377.91;1443721;90;21671;-79
2023/01/23 01:07:04;;;;;;;15.80;7.93;;;;;;;1.93;100.00;101378.70;1446756;90;21710;-80
2023/01/23 01:09:30;;;;;;;14.50;9.47;;;;;;;1.95;100.00;101376.37;1435142;90;21786;-81
2023/01/23 01:11:57;;;;;;;14.30;9.07;;;;;;;1.97;100.00;101372.41;1445301;90;21959;-80
2023/01/23 01:14:23;;;;;;;18.80;9.83;;;;;;;1.99;100.00;101378.42;1438533;90;22724;-80
2023/01/23 01:16:49;;;;;;;16.33;10.10;;;;;;;1.98;100.00;101374.09;1443555;90;21701;-81
2023/01/23 01:19:17;;;;;;;17.17;9.77;;;;;;;1.96;100.00;101377.25;1450648;90;21782;-80
2023/01/23 01:21:44;;;;;;;16.07;9.73;;;;;;;1.96;100.00;101375.95;1441940;90;21709;-81
2023/01/23 01:24:13;;;;;;;18.87;10.63;;;;;;;1.96;100.00;101378.09;1424254;90;22098;-81
2023/01/23 01:26:39;;;;;;;16.40;10.07;;;;;;;1.98;100.00;101375.40;1446232;90;22687;-80
2023/01/23 01:29:06;;;;;;;17.70;11.20;;;;;;;2.00;100.00;101382.72;1431932;90;23359;-81
2023/01/23 01:31:32;;;;;;;13.93;9.00;;;;;;;2.01;100.00;101390.50;1442715;90;22620;-81
2023/01/23 01:33:58;;;;;;;13.10;9.53;;;;;;;2.05;100.00;101391.20;1445032;90;21760;-79
2023/01/23 01:36:27;;;;;;;13.87;8.93;;;;;;;2.05;100.00;101380.75;1443434;90;22122;-81
2023/01/23 01:38:53;;;;;;;16.63;9.63;;;;;;;2.08;100.00;101383.69;1446071;90;21695;-81
2023/01/23 01:41:19;;;;;;;14.13;9.07;;;;;;;2.10;100.00;101385.75;1436792;90;21702;-81
2023/01/23 01:43:46;;;;;;;17.67;9.90;;;;;;;2.08;100.00;101387.60;1449355;90;21814;-80
2023/01/23 01:46:25;;;;;;;17.23;9.20;;;;;;;2.08;100.00;101385.83;1440981;90;22262;-78
2023/01/23 01:49:24;;;;;;;14.87;9.80;;;;;;;2.06;100.00;101381.59;1453105;90;21886;-79
2023/01/23 01:52:07;;;;;;;13.73;8.63;;;;;;;2.03;100.00;101387.80;1441924;90;21850;-78
2023/01/23 01:54:42;;;;;;;11.93;7.80;;;;;;;2.02;100.00;101388.72;1439919;90;21752;-79
2023/01/23 01:57:25;;;;;;;19.03;9.83;;;;;;;2.04;100.00;101389.48;1527879;90;21650;-79
2023/01/23 02:00:17;;;;;;;15.47;8.80;;;;;;;2.07;100.00;101389.34;1527824;90;21765;-79
2023/01/23 02:02:48;;;;;;;15.20;8.07;;;;;;;2.11;100.00;101394.83;1522079;90;21745;-79
2023/01/23 02:05:19;;;;;;;12.70;7.87;;;;;;;2.11;100.00;101394.83;1419400;90;21586;-79
2023/01/23 02:08:24;;;;;;;12.15;7.85;;;;;;;2.11;100.00;101392.69;1528010;90;21559;-78
2023/01/23 02:10:51;;;;;;;11.47;7.37;;;;;;;2.09;100.00;101397.12;1525343;90;21463;-78
2023/01/23 02:13:38;;;;;;;11.07;7.00;;;;;;;2.06;100.00;101399.41;1372478;90;21560;-79
2023/01/23 02:16:16;;;;;;;12.13;7.50;;;;;;;2.05;100.00;101396.42;1527874;90;22341;-79
2023/01/23 02:18:47;;;;;;;11.47;7.70;;;;;;;2.04;100.00;101405.15;1527517;90;21650;-79
2023/01/23 02:21:17;;;;;;;13.68;8.03;;;;;;;2.09;100.00;101403.18;1528635;90;21627;-79
2023/01/23 02:24:11;;;;;;;11.57;7.22;;;;;;;2.09;100.00;101403.18;1357627;94;21341;-78
2023/01/23 02:26:42;;;;;;;14.50;7.87;;;;;;;2.08;100.00;101397.58;1377881;90;21386;-78
2023/01/23 02:29:09;;;;;;;;;;;;;;;2.08;100.00;101397.58;1530189;90;21854;-78
2023/01/23 02:31:36;;;;;;;11.37;7.03;;;;;;;2.13;100.00;101404.76;1373069;90;20241;-78
2023/01/23 02:34:04;;;;;;;11.60;7.30;;;;;;;2.10;100.00;101400.11;1372548;90;21523;-81
2023/01/23 02:36:33;;;;;;;10.97;7.80;;;;;;;2.09;100.00;101403.18;1371678;90;21660;-82
2023/01/23 02:39:12;;;;;;;12.03;7.13;;;;;;;2.08;100.00;101402.80;1370160;90;21643;-80
2023/01/23 02:41:46;;;;;;;11.80;7.17;;;;;;;2.08;100.00;101408.03;1527859;90;21799;-79
2023/01/23 02:44:30;;;;;;;14.23;8.00;;;;;;;2.07;100.00;101405.01;1490905;90;22493;-79
2023/01/23 02:47:01;;;;;;;11.50;7.17;;;;;;;2.06;100.00;101413.77;1528030;90;21430;-80
2023/01/23 02:49:28;;;;;;;10.53;7.25;;;;;;;2.07;100.00;101415.45;1522464;90;21734;-79
2023/01/23 02:51:55;;;;;;;9.43;7.00;;;;;;;2.12;100.00;101416.56;1372913;90;22326;-79
2023/01/23 02:54:22;;;;;;;11.70;7.23;;;;;;;2.10;100.00;101414.47;1372530;90;21818;-80
2023/01/23 02:56:49;;;;;;;8.13;6.07;;;;;;;2.10;100.00;101414.47;1371970;90;21759;-79
2023/01/23 03:02:00;;;;;;;9.97;6.73;;;;;;;2.08;100.00;101418.47;1522197;90;21895;-80
2023/01/23 03:04:27;;;;;;;8.83;4.87;;;;;;;2.02;100.00;101433.12;1373440;90;21675;-78
2023/01/23 03:06:53;;;;;;;10.43;7.13;;;;;;;1.98;100.00;101431.53;1373567;90;22539;-79
2023/01/23 03:09:19;;;;;;;18.30;7.07;;;;;;;1.98;100.00;101430.23;1373323;90;21572;-79
2023/01/23 03:11:46;;;;;;;16.23;7.57;;;;;;;1.96;100.00;101429.48;1378869;90;21688;-79
2023/01/23 03:14:17;;;;;;;9.60;6.63;;;;;;;1.96;100.00;101428.17;1373203;90;21569;-78
2023/01/23 03:16:49;;;;;;;10.45;5.70;;;;;;;2.01;100.00;101436.63;1527058;90;22630;-78
2023/01/23 03:19:12;;;;;;;17.13;7.17;;;;;;;1.99;100.00;101431.95;1526589;90;22260;-78
2023/01/23 03:21:39;;;;;;;12.07;6.70;;;;;;;2.00;100.00;101427.95;1373252;90;21609;-80
2023/01/23 03:24:09;;;;;;;11.43;7.00;;;;;;;2.03;100.00;101419.97;1373626;90;21614;-80
2023/01/23 03:26:40;;;;;;;13.60;8.70;;;;;;;2.05;100.00;101417.31;1527171;90;22710;-79
2023/01/23 03:31:53;;;;;;;11.70;7.70;;;;;;;2.01;100.00;101413.99;1528003;90;21106;-78
2023/01/23 03:34:21;;;;;;;11.93;7.60;;;;;;;2.02;100.00;101413.06;1378954;90;22701;-78
2023/01/23 03:36:47;;;;;;;9.13;7.10;;;;;;;1.97;100.00;101407.20;1372492;90;21547;-78
2023/01/23 03:41:58;;;;;;;8.43;5.73;;;;;;;1.95;100.00;101414.70;1527864;90;21679;-79
2023/01/23 03:44:24;;;;;;;8.57;5.70;;;;;;;1.94;100.00;101413.02;1373300;90;21638;-80
2023/01/23 03:46:51;;;;;;;11.20;7.07;;;;;;;1.95;100.00;101412.94;1517635;90;22459;-80
2023/01/23 03:49:18;;;;;;;11.00;6.80;;;;;;;1.96;100.00;101414.66;1372731;90;21625;-79
2023/01/23 03:51:44;;;;;;;10.40;7.57;;;;;;;1.98;100.00;101410.65;1372531;90;22375;-79
2023/01/23 03:54:11;;;;;;;9.93;6.77;;;;;;;1.99;100.00;101411.06;1373256;90;21745;-81
2023/01/23 03:56:37;;;;;;;9.50;6.20;;;;;;;1.94;100.00;101420.85;1373963;90;21615;-78
2023/01/23 03:59:04;;;;;;;10.37;6.47;;;;;;;1.93;100.00;101423.09;1373597;90;21757;-78
2023/01/23 04:01:30;;;;;;;11.50;6.63;;;;;;;1.93;100.00;101423.09;1373177;90;21598;-79
2023/01/23 04:03:56;;;;;;;10.30;6.87;;;;;;;1.90;100.00;101413.63;1361570;91;21517;-80
2023/01/23 04:06:22;;;;;;;10.97;6.87;;;;;;;1.91;100.00;101414.46;1403711;90;21872;-79
2023/01/23 04:08:48;;;;;;;8.70;6.27;;;;;;;1.89;100.00;101417.59;1446145;90;21806;-79
2023/01/23 04:11:15;;;;;;;15.57;7.23;;;;;;;1.90;100.00;101420.15;1441824;90;23233;-79
2023/01/23 04:13:41;;;;;;;9.43;6.53;;;;;;;1.90;100.00;101410.14;1443243;90;21766;-79
2023/01/23 04:16:07;;;;;;;12.90;6.83;;;;;;;1.91;100.00;101413.16;1442757;90;21693;-79
2023/01/23 04:18:34;;;;;;;12.23;7.27;;;;;;;1.77;100.00;101413.30;1429226;90;21733;-78
2023/01/23 04:21:00;;;;;;;10.80;7.50;;;;;;;1.77;100.00;101413.30;1444436;90;21828;-79
2023/01/23 04:23:27;;;;;;;9.00;5.70;;;;;;;1.82;100.00;101420.09;1444910;90;22730;-79
2023/01/23 04:25:53;;;;;;;10.23;6.87;;;;;;;1.80;100.00;101418.38;1441698;90;21667;-79
2023/01/23 04:28:19;;;;;;;9.63;6.50;;;;;;;1.79;100.00;101411.47;1441554;90;21622;-79
2023/01/23 04:30:46;;;;;;;11.77;6.97;;;;;;;1.82;100.00;101413.11;1440244;90;21651;-78
2023/01/23 04:33:12;;;;;;;13.00;8.23;;;;;;;1.80;100.00;101414.92;1447605;90;21637;-78
2023/01/23 04:35:38;;;;;;;17.37;9.20;;;;;;;1.76;100.00;101409.00;1442323;90;21783;-77
2023/01/23 04:38:04;;;;;;;10.93;7.70;;;;;;;1.77;100.00;101417.67;1453214;90;21769;-78
2023/01/23 04:40:31;;;;;;;10.80;7.33;;;;;;;1.76;100.00;101423.36;1446180;90;21592;-78
2023/01/23 04:42:58;;;;;;;12.67;7.23;;;;;;;1.76;100.00;101415.98;1443047;90;21853;-79
2023/01/23 04:45:24;;;;;;;11.13;6.57;;;;;;;1.77;100.00;101408.54;1445051;90;21801;-80
2023/01/23 04:47:50;;;;;;;11.77;7.00;;;;;;;1.76;100.00;101410.30;1448758;90;21794;-80
2023/01/23 04:50:17;;;;;;;12.03;6.80;;;;;;;1.76;100.00;101412.92;1444492;90;23231;-79
2023/01/23 04:52:43;;;;;;;11.87;7.17;;;;;;;1.73;100.00;101416.97;1442607;90;21813;-79
2023/01/23 04:55:10;;;;;;;11.77;7.87;;;;;;;1.70;100.00;101411.88;1444919;90;21733;-79
2023/01/23 04:57:36;;;;;;;15.13;9.07;;;;;;;1.68;100.00;101412.40;1446353;90;21740;-79
2023/01/23 05:00:03;;;;;;;11.17;7.57;;;;;;;1.70;100.00;101422.33;1444188;90;21653;-79
2023/01/23 05:02:29;;;;;;;13.27;8.27;;;;;;;1.72;100.00;101421.77;1456870;90;21648;-80
2023/01/23 05:04:55;;;;;;;11.77;7.60;;;;;;;1.70;100.00;101421.02;1443721;90;22199;-79
2023/01/23 05:07:21;;;;;;;12.17;8.07;;;;;;;1.74;100.00;101424.34;1442640;90;22116;-81
2023/01/23 05:09:47;;;;;;;12.80;8.37;;;;;;;1.75;100.00;101435.16;1443066;90;22750;-80
2023/01/23 05:12:14;;;;;;;12.30;8.03;;;;;;;1.77;100.00;101441.17;1448046;90;21804;-79
2023/01/23 05:14:40;;;;;;;10.37;6.73;;;;;;;1.76;100.00;101444.70;1443672;90;21653;-80
2023/01/23 05:17:07;;;;;;;14.63;9.73;;;;;;;1.72;100.00;101441.81;1450638;90;22517;-80
2023/01/23 05:19:33;;;;;;;13.27;7.60;;;;;;;1.74;100.00;101451.28;1450636;90;21702;-79
2023/01/23 05:22:00;;;;;;;14.80;8.63;;;;;;;1.72;100.00;101454.41;1449077;90;21760;-80
2023/01/23 05:24:26;;;;;;;12.43;6.50;;;;;;;1.69;100.00;101444.09;1443754;90;21673;-79
2023/01/23 05:26:53;;;;;;;9.93;6.43;;;;;;;1.69;100.00;101448.47;1445623;90;21741;-80
2023/01/23 05:29:19;;;;;;;10.70;7.17;;;;;;;1.66;100.00;101442.08;1444633;90;21610;-80
2023/01/23 05:31:45;;;;;;;11.80;8.30;;;;;;;1.67;100.00;101439.85;1444645;90;21774;-80
2023/01/23 05:34:11;;;;;;;10.07;6.70;;;;;;;1.64;100.00;101444.77;1444894;90;21694;-79
2023/01/23 05:36:37;;;;;;;12.37;6.93;;;;;;;1.66;100.00;101444.69;1440121;90;22407;-79
2023/01/23 05:39:04;;;;;;;14.87;8.53;;;;;;;1.60;100.00;101447.11;1444856;90;21665;-77
2023/01/23 05:41:30;;;;;;;13.63;7.97;;;;;;;1.56;100.00;101450.30;1434706;90;21801;-79
2023/01/23 05:43:56;;;;;;;10.43;7.47;;;;;;;1.55;100.00;101455.58;1442841;90;22659;-79
2023/01/23 05:46:22;;;;;;;11.13;6.87;;;;;;;1.54;100.00;101464.33;1451089;90;21539;-79
2023/01/23 05:48:51;;;;;;;12.60;7.33;;;;;;;1.52;100.00;101461.77;1444360;90;21762;-80
2023/01/23 05:51:17;;;;;;;11.67;6.87;;;;;;;1.53;100.00;101469.16;1371345;90;22358;-80
2023/01/23 05:53:45;;;;;;;8.70;6.80;;;;;;;1.54;100.00;101470.85;1371521;90;21698;-79
2023/01/23 05:56:11;;;;;;;8.97;6.30;;;;;;;1.54;100.00;101474.77;1373446;90;22443;-79
2023/01/23 05:58:37;;;;;;;9.83;6.63;;;;;;;1.55;100.00;101479.06;1374736;90;21580;-79
2023/01/23 06:01:04;;;;;;;10.40;6.63;;;;;;;1.55;100.00;101482.97;1372048;90;21663;-79
2023/01/23 06:03:30;;;;;;;9.53;6.43;;;;;;;1.55;100.00;101489.50;1372759;90;21649;-80
2023/01/23 06:05:56;;;;;;;9.27;6.50;;;;;;;1.52;100.00;101492.23;1373622;90;21593;-79
2023/01/23 06:08:22;;;;;;;9.30;6.80;;;;;;;1.57;100.00;101492.90;1373963;90;21566;-79
2023/01/23 06:10:49;;;;;;;11.87;7.13;;;;;;;1.60;100.00;101496.69;1373819;90;23011;-79
2023/01/23 06:13:15;;;;;;;11.20;7.23;;;;;;;1.60;100.00;101500.59;1379126;90;21636;-80
2023/01/23 06:15:41;;;;;;;9.60;6.63;;;;;;;1.61;100.00;101506.66;1373749;90;21440;-80
2023/01/23 06:18:07;;;;;;;11.27;7.47;;;;;;;1.57;100.00;101503.34;1373445;90;22346;-79
2023/01/23 06:20:34;;;;;;;10.00;6.53;;;;;;;1.55;100.00;101509.94;1373301;90;21613;-80
2023/01/23 06:23:00;;;;;;;9.60;6.57;;;;;;;1.54;100.00;101519.13;1373591;90;22516;-80
2023/01/23 06:25:26;;;;;;;10.40;7.40;;;;;;;1.52;100.00;101511.80;1373481;90;21665;-80
2023/01/23 06:27:53;;;;;;;10.67;7.00;;;;;;;1.51;100.00;101511.42;1495515;90;21568;-78
2023/01/23 06:30:19;;;;;;;7.03;5.47;;;;;;;1.51;100.00;101517.48;1373309;90;22223;-80
2023/01/23 06:32:45;;;;;;;12.03;6.77;;;;;;;1.54;100.00;101520.42;1373397;90;21770;-80
2023/01/23 06:35:11;;;;;;;8.27;6.30;;;;;;;1.52;100.00;101517.02;1373592;90;21546;-81
2023/01/23 06:37:38;;;;;;;10.93;7.20;;;;;;;1.56;100.00;101529.05;1373598;90;21676;-82
2023/01/23 06:40:05;;;;;;;10.40;7.23;;;;;;;1.58;100.00;101538.52;1373669;90;21484;-80
2023/01/23 06:42:31;;;;;;;9.00;6.87;;;;;;;1.62;100.00;101523.58;1377809;90;21645;-80
2023/01/23 06:44:57;;;;;;;9.90;6.47;;;;;;;1.64;100.00;101529.59;1373346;90;21524;-80
2023/01/23 06:47:23;;;;;;;9.20;6.40;;;;;;;1.64;100.00;101529.59;1468219;90;23186;-83
2023/01/23 06:49:50;;;;;;;13.83;7.20;;;;;;;1.67;100.00;101529.45;1444931;90;21540;-82
2023/01/23 06:52:16;;;;;;;10.60;7.17;;;;;;;1.69;100.00;101531.52;1449507;90;22156;-81
2023/01/23 06:54:42;;;;;;;11.00;6.50;;;;;;;1.67;100.00;101525.97;1448848;90;21766;-81
2023/01/23 06:57:08;;;;;;;9.73;6.10;;;;;;;1.72;100.00;101530.09;1442273;90;22749;-83
2023/01/23 06:59:35;;;;;;;10.17;6.80;;;;;;;1.76;100.00;101529.53;1444291;90;21629;-84
2023/01/23 07:02:02;;;;;;;10.17;6.37;;;;;;;1.76;100.00;101532.14;1370491;90;22394;-82
2023/01/23 07:04:28;;;;;;;9.57;6.57;;;;;;;1.79;100.00;101544.59;1373902;90;21556;-82
2023/01/23 07:06:54;;;;;;;11.77;7.67;;;;;;;1.80;100.00;101541.06;1373568;90;21766;-79
2023/01/23 07:09:20;;;;;;;11.23;7.17;;;;;;;1.85;100.00;101537.43;1373360;90;21519;-79
2023/01/23 07:11:46;;;;;;;12.30;7.87;;;;;;;1.87;100.00;101532.97;1373293;90;21688;-80
2023/01/23 07:14:13;;;;;;;10.33;6.77;;;;;;;1.92;100.00;101538.86;1353009;91;21573;-80
2023/01/23 07:16:39;;;;;;;10.27;7.30;;;;;;;1.97;100.00;101532.52;1379380;90;21961;-79
2023/01/23 07:19:05;;;;;;;10.27;7.80;;;;;;;2.01;100.00;101528.02;1373540;90;21476;-79
2023/01/23 07:21:32;;;;;;;14.77;10.20;;;;;;;2.01;100.00;101528.02;1373372;90;21851;-81
2023/01/23 07:23:58;;;;;;;20.83;15.17;;;;;;;2.07;100.00;101530.36;1378863;90;21747;-80
2023/01/23 07:26:25;;;;;;;12.90;9.27;;;;;;;2.10;100.00;101535.48;1481589;90;22833;-79
2023/01/23 07:28:51;;;;;;;11.53;8.70;;;;;;;2.14;100.00;101538.33;1440850;90;22780;-89
2023/01/23 07:31:17;;;;;;;12.17;9.93;;;;;;;2.14;100.00;101538.33;1439185;90;22653;-90
2023/01/23 07:33:44;;;;;;;10.27;7.50;;;;;;;2.19;100.00;101548.13;1451536;90;21583;-83
2023/01/23 07:36:13;;;;;;;9.87;8.30;;;;;;;2.23;100.00;101547.07;1444541;90;21889;-86
2023/01/23 07:38:39;;;;;;;10.20;6.87;;;;;;;2.26;100.00;101548.24;1440344;90;22781;-86
2023/01/23 07:41:05;;;;;;;10.33;6.77;;;;;;;2.33;100.00;101546.66;1445254;90;22745;-85
2023/01/23 07:43:31;;;;;;;12.23;7.60;;;;;;;2.35;100.00;101547.45;1430840;90;22110;-86
2023/01/23 07:45:59;;;;;;;8.30;6.37;;;;;;;2.40;100.00;101548.11;1449308;90;21730;-85
2023/01/23 07:48:25;;;;;;;15.83;7.50;;;;;;;2.46;100.00;101545.22;1449700;90;21825;-84
2023/01/23 07:50:51;;;;;;;11.60;6.80;;;;;;;2.54;100.00;101553.57;1447005;90;21891;-86
2023/01/23 07:53:18;;;;;;;9.67;7.10;;;;;;;2.60;100.00;101555.91;1446426;90;21884;-85
2023/01/23 07:55:44;;;;;;;9.47;6.50;;;;;;;2.67;100.00;101560.39;1449906;90;22212;-86
2023/01/23 07:58:10;;;;;;;13.67;7.53;;;;;;;2.67;100.00;101560.39;1444607;90;21994;-85
2023/01/23 08:00:37;;;;;;;10.50;7.17;;;;;;;2.71;100.00;101556.27;1448806;90;21850;-86
2023/01/23 08:03:03;;;;;;;9.17;6.40;;;;;;;2.73;99.40;101559.27;1449775;90;22013;-85
2023/01/23 08:05:30;;;;;;;9.63;6.13;;;;;;;2.73;99.40;101559.27;1446360;90;21988;-86
2023/01/23 08:07:56;;;;;;;9.33;7.03;;;;;;;2.85;99.38;101558.81;1433388;90;21829;-86
2023/01/23 08:10:22;;;;;;;12.67;6.80;;;;;;;2.92;99.33;101558.81;1446470;90;23454;-84
2023/01/23 08:12:48;;;;;;;9.57;7.20;;;;;;;2.99;98.93;101560.22;1452602;90;22114;-83
2023/01/23 08:15:14;;;;;;;12.10;6.90;;;;;;;3.02;98.42;101564.03;1441286;90;21376;-83
2023/01/23 08:17:40;;;;;;;12.30;7.20;;;;;;;3.06;98.33;101569.48;1450594;90;21349;-83
2023/01/23 08:20:09;;;;;;;9.67;6.93;;;;;;;3.08;97.81;101572.02;1448543;90;23190;-83
2023/01/23 08:22:39;;;;;;;11.00;7.27;;;;;;;3.03;97.40;101574.02;1445880;90;23057;-85
2023/01/23 08:25:09;;;;;;;8.63;6.40;;;;;;;3.10;97.44;101571.50;1448580;90;22075;-86
2023/01/23 08:27:36;;;;;;;9.95;6.55;;;;;;;3.14;97.42;101572.60;1432661;90;22383;-85
2023/01/23 08:30:05;;;;;;;9.90;6.43;;;;;;;3.19;97.37;101572.83;1440781;90;22413;-88
2023/01/23 08:32:33;;;;;;;9.50;5.83;;;;;;;3.21;97.35;101577.54;1447784;90;22333;-88
2023/01/23 08:34:59;;;;;;;8.97;5.50;;;;;;;3.30;97.49;101572.71;1429586;90;22058;-89
2023/01/23 08:37:25;;;;;;;7.33;5.63;;;;;;;3.33;97.22;101574.34;1444692;90;22085;-89
2023/01/23 08:39:51;;;;;;;7.97;5.97;;;;;;;3.33;97.02;101584.80;1446505;90;22974;-92
2023/01/23 08:42:18;;;;;;;8.37;6.00;;;;;;;3.35;97.00;101585.59;1421984;90;22176;-90
2023/01/23 08:44:44;;;;;;;8.13;5.30;;;;;;;3.38;97.00;101586.28;1451055;90;22130;-85
2023/01/23 08:47:10;;;;;;;9.37;6.00;;;;;;;3.43;96.53;101590.00;1448104;90;22115;-89
2023/01/23 08:49:36;;;;;;;10.43;7.60;;;;;;;3.50;96.34;101576.99;1448197;90;23056;-90
2023/01/23 08:52:04;;;;;;;9.87;6.50;;;;;;;3.56;96.31;101578.00;1445543;90;22080;-91
2023/01/23 08:54:31;;;;;;;13.33;7.43;;;;;;;3.59;96.21;101576.54;1444738;90;22930;-90
2023/01/23 08:56:57;;;;;;;12.97;7.60;;;;;;;3.70;96.32;101569.48;1446603;90;22089;-88
2023/01/23 08:59:24;;;;;;;14.10;9.70;;;;;;;4.01;98.55;101579.28;1442856;90;22362;-91
2023/01/23 09:01:50;;;;;;;15.60;8.23;;;;;;;4.16;98.46;101578.12;1443750;90;21408;-88
2023/01/23 09:04:17;;;;;;;11.50;6.70;;;;;;;4.16;98.46;101578.12;1517267;90;21275;-90
2023/01/23 09:06:43;;;;;;;11.63;7.40;;;;;;;4.37;97.39;101578.31;1447631;90;22273;-86
2023/01/23 09:09:10;;;;;;;10.73;6.70;;;;;;;4.69;100.00;101589.76;1441454;90;21370;-89
2023/01/23 09:11:36;;;;;;;9.17;5.57;;;;;;;4.81;95.40;101593.50;1444078;90;21311;-90
2023/01/23 09:14:02;;;;;;;8.50;4.47;;;;;;;5.01;94.84;101585.03;1444012;90;22281;-87
2023/01/23 09:16:28;;;;;;;8.50;4.97;;;;;;;5.25;94.21;101583.67;1451242;90;21868;-87
2023/01/23 09:18:55;;;;;;;8.93;5.50;;;;;;;5.43;93.93;101582.63;1444599;90;22435;-90
2023/01/23 09:21:22;;;;;;;9.13;5.47;;;;;;;5.64;92.06;101583.69;1449882;90;21327;-85
2023/01/23 09:23:48;;;;;;;7.60;5.57;;;;;;;5.84;91.36;101582.07;1443558;90;21414;-88
2023/01/23 09:26:15;;;;;;;7.73;5.47;;;;;;;6.02;91.40;101580.17;1445310;90;22471;-89
2023/01/23 09:28:42;;;;;;;9.53;5.80;;;;;;;6.10;89.47;101583.20;1446147;90;21363;-87
2023/01/23 09:31:12;;;;;;;8.20;5.13;;;;;;;6.25;89.93;101580.13;1447389;90;22642;-86
2023/01/23 09:33:40;;;;;;;5.85;4.58;;;;;;;6.22;85.77;101580.31;1446804;90;22383;-86
2023/01/23 09:36:08;;;;;;;33.23;20.23;;;;;;;6.38;86.96;101568.87;1436099;90;21333;-86
2023/01/23 09:38:34;;;;;;;205.87;95.53;;;;;;;6.38;85.26;101571.50;1442247;90;21362;-85
2023/01/23 09:41:20;;;;;;;49.03;25.40;;;;;;;6.51;84.60;101571.14;1447682;90;21393;-84
2023/01/23 09:44:06;;;;;;;29.70;17.00;;;;;;;6.45;84.56;101567.10;1450361;90;22228;-80
2023/01/23 09:46:40;;;;;;;14.87;9.23;;;;;;;6.56;84.98;101566.45;1441090;90;22280;-91
2023/01/23 09:49:42;;;;;;;16.20;10.73;;;;;;;6.88;85.65;101571.52;1446990;90;22523;-92
2023/01/23 09:52:22;;;;;;;11.20;8.30;;;;;;;7.00;84.64;101571.58;1424804;90;22538;-84
2023/01/23 09:55:03;;;;;;;9.90;7.63;;;;;;;6.94;83.07;101575.08;1441147;90;21449;-85
2023/01/23 09:57:36;;;;;;;10.60;7.85;;;;;;;6.96;83.83;101575.80;1440685;90;21427;-89
2023/01/23 10:00:08;;;;;;;13.43;9.60;;;;;;;6.89;83.67;101573.19;1443971;90;21591;-88
2023/01/23 10:02:34;;;;;;;7.60;5.87;;;;;;;6.90;83.65;101580.98;1378566;94;22347;-89
2023/01/23 10:05:03;;;;;;;11.10;8.17;;;;;;;6.86;84.03;101577.33;1393058;94;21472;-93
2023/01/23 10:07:38;;;;;;;8.07;6.10;;;;;;;6.94;83.58;101579.02;1397496;94;22493;-89
2023/01/23 10:10:28;;;;;;;9.40;7.20;;;;;;;6.90;83.24;101574.39;1394506;94;22486;-91
2023/01/23 10:13:08;;;;;;;7.00;6.30;;;;;;;6.97;83.68;101570.93;1394220;94;22339;-90
2023/01/23 10:16:13;;;;;;;7.53;6.00;;;;;;;7.04;84.10;101565.64;1393852;94;21885;-90
2023/01/23 10:18:54;;;;;;;6.63;4.87;;;;;;;7.21;83.53;101568.52;1392727;94;22412;-90
2023/01/23 10:21:35;;;;;;;6.70;4.80;;;;;;;7.26;81.92;101568.23;1389432;94;21449;-88
2023/01/23 10:24:41;;;;;;;10.85;5.05;;;;;;;7.41;83.20;101568.08;1401083;93;21965;-88
2023/01/23 10:27:22;;;;;;;9.93;6.80;;;;;;;7.48;81.17;101557.14;1380146;93;21941;-89
2023/01/23 10:30:32;;;;;;;5.33;4.78;;;;;;;7.80;81.43;101557.69;1402377;92;22692;-90
2023/01/23 10:33:03;;;;;;;6.90;5.20;;;;;;;8.43;76.76;101550.78;1356016;95;21715;-89
2023/01/23 10:35:54;;;;;;;;;;;;;;;8.65;78.25;101539.11;1398749;93;21628;-89
2023/01/23 10:39:18;;;;;;;6.80;4.97;;;;;;;8.73;76.17;101550.45;1398968;93;20432;-91
2023/01/23 10:41:45;;;;;;;4.30;3.50;;;;;;;8.70;74.62;101545.39;1443606;90;21451;-91
2023/01/23 10:44:16;;;;;;;8.67;5.27;;;;;;;8.87;75.44;101537.12;1413766;92;21341;-90
2023/01/23 10:46:49;;;;;;;6.53;5.47;;;;;;;8.88;74.86;101539.28;1429354;91;21429;-88
2023/01/23 10:49:37;;;;;;;6.70;4.27;;;;;;;9.17;76.09;101536.69;1435603;91;21518;-90
2023/01/23 10:52:06;;;;;;;16.87;10.57;;;;;;;9.63;74.28;101529.83;1401701;92;21474;-91
2023/01/23 10:54:38;;;;;;;11.67;8.40;;;;;;;10.20;74.12;101529.50;1430410;91;22340;-92
2023/01/23 10:57:16;;;;;;;8.00;5.77;;;;;;;10.45;71.27;101529.31;1426808;91;22514;-92
2023/01/23 11:00:03;;;;;;;8.70;6.80;;;;;;;10.71;72.37;101528.59;1438124;91;21385;-93
2023/01/23 11:02:36;;;;;;;8.33;6.03;;;;;;;10.88;71.38;101518.47;1411275;92;21441;-92
2023/01/23 11:05:34;;;;;;;8.47;6.40;;;;;;;11.07;67.88;101522.62;1424448;92;21405;-92
2023/01/23 11:08:00;;;;;;;5.53;4.50;;;;;;;11.17;68.32;101524.89;1413785;92;22611;-92
2023/01/23 11:10:26;;;;;;;4.90;4.03;;;;;;;11.44;66.76;101512.99;1403200;92;21530;-92
2023/01/23 11:12:55;;;;;;;6.30;5.30;;;;;;;11.18;66.30;101521.27;1417545;92;21408;-92
2023/01/23 11:15:32;;;;;;;5.13;4.47;;;;;;;10.93;66.46;101518.91;1409144;92;21410;-90
2023/01/23 11:18:00;;;;;;;5.03;4.50;;;;;;;10.82;65.70;101519.80;1390581;94;22428;-91
2023/01/23 11:20:32;;;;;;;4.80;4.10;;;;;;;10.92;66.39;101515.92;1389258;94;21452;-93
2023/01/23 11:23:16;;;;;;;5.57;4.20;;;;;;;10.66;67.07;101522.80;1377393;94;21651;-93
2023/01/23 11:25:49;;;;;;;6.83;4.03;;;;;;;10.75;67.92;101516.77;1415058;92;21588;-92
2023/01/23 11:28:34;;;;;;;5.40;3.87;;;;;;;11.15;67.51;101516.22;1415710;92;21528;-92
2023/01/23 11:31:18;;;;;;;5.73;3.67;;;;;;;11.27;67.45;101505.94;1388650;94;22363;-91
2023/01/23 11:34:10;;;;;;;5.80;3.77;;;;;;;11.38;66.48;101500.25;1389585;94;22021;-89
2023/01/23 11:36:53;;;;;;;7.70;4.10;;;;;;;11.38;66.16;101497.59;1401383;93;21614;-93
2023/01/23 11:39:47;;;;;;;4.30;3.47;;;;;;;11.65;67.89;101500.62;1424734;90;21400;-91
2023/01/23 11:42:15;;;;;;;4.80;3.40;;;;;;;11.46;64.37;101501.78;1448800;90;21444;-89